createdAt,value
2023-05-10T00:02:22.253Z,20.47
2023-05-10T00:07:46.021Z,20.46
2023-05-10T00:13:07.886Z,20.45
2023-05-10T00:18:29.847Z,20.44
2023-05-10T00:23:51.697Z,20.43
2023-05-10T00:29:13.434Z,20.41
2023-05-10T00:34:35.177Z,20.41
2023-05-10T00:39:57.008Z,20.40
2023-05-10T00:45:18.932Z,20.39
2023-05-10T00:50:41.322Z,20.37
2023-05-10T00:56:04.807Z,20.37
2023-05-10T01:01:26.655Z,20.36
2023-05-10T01:06:48.495Z,20.34
2023-05-10T01:12:10.547Z,20.33
2023-05-10T01:17:32.705Z,20.32
2023-05-10T01:23:32.086Z,20.33
2023-05-10T01:29:09.077Z,20.31
2023-05-10T01:34:39.155Z,20.31
2023-05-10T01:40:19.951Z,20.30
2023-05-10T01:45:50.868Z,20.28
2023-05-10T01:51:14.080Z,20.26
2023-05-10T01:56:41.442Z,20.27
2023-05-10T02:02:06.003Z,20.24
2023-05-10T02:07:29.779Z,20.23
2023-05-10T02:12:54.741Z,20.23
2023-05-10T02:18:18.147Z,20.21
2023-05-10T02:23:40.929Z,20.21
2023-05-10T02:29:07.969Z,20.20
2023-05-10T02:34:31.144Z,20.20
2023-05-10T02:39:56.405Z,20.19
2023-05-10T02:45:21.916Z,20.18
2023-05-10T02:50:45.782Z,20.15
2023-05-10T02:56:15.801Z,20.18
2023-05-10T03:01:37.685Z,20.14
2023-05-10T03:07:00.169Z,20.14
2023-05-10T03:12:55.147Z,20.15
2023-05-10T03:18:37.679Z,20.13
2023-05-10T03:24:10.265Z,20.13
2023-05-10T03:29:33.210Z,20.11
2023-05-10T03:34:55.062Z,20.10
2023-05-10T03:40:17.404Z,20.09
2023-05-10T03:45:39.403Z,20.09
2023-05-10T03:51:01.351Z,20.08
2023-05-10T03:56:23.266Z,20.07
2023-05-10T04:01:45.089Z,20.07
2023-05-10T04:07:06.867Z,20.06
2023-05-10T04:12:28.642Z,20.05
2023-05-10T04:17:51.611Z,20.04
2023-05-10T04:23:15.259Z,20.03
2023-05-10T04:28:37.143Z,20.03
2023-05-10T04:33:58.931Z,20.02
2023-05-10T04:39:20.746Z,20.01
2023-05-10T04:44:42.636Z,20.01
2023-05-10T04:50:07.711Z,20.01
2023-05-10T04:55:29.538Z,19.99
2023-05-10T05:00:51.340Z,19.99
2023-05-10T05:06:13.098Z,19.97
2023-05-10T05:11:34.913Z,20.02
2023-05-10T05:16:57.099Z,20.09
2023-05-10T05:22:20.586Z,20.16
2023-05-10T05:27:43.182Z,20.19
2023-05-10T05:33:05.399Z,20.23
2023-05-10T05:38:27.388Z,20.26
2023-05-10T05:43:49.210Z,20.34
2023-05-10T05:49:11.236Z,20.35
2023-05-10T05:54:34.038Z,20.35
2023-05-10T05:59:56.016Z,20.32
2023-05-10T06:05:18.232Z,20.31
2023-05-10T06:10:40.250Z,20.29
2023-05-10T06:16:03.672Z,20.25
2023-05-10T06:21:25.715Z,20.22
2023-05-10T06:26:47.586Z,20.21
2023-05-10T06:32:09.400Z,20.19
2023-05-10T06:37:31.180Z,20.16
2023-05-10T06:42:53.012Z,20.13
2023-05-10T06:48:14.897Z,20.12
2023-05-10T06:53:36.918Z,20.12
2023-05-10T06:58:59.032Z,20.10
2023-05-10T07:04:20.922Z,20.08
2023-05-10T07:09:43.319Z,20.07
2023-05-10T07:15:06.152Z,20.06
2023-05-10T07:20:27.997Z,20.01
2023-05-10T07:25:51.061Z,20.01
2023-05-10T07:31:12.832Z,20.02
2023-05-10T07:36:34.697Z,20.03
2023-05-10T07:41:57.013Z,20.07
2023-05-10T07:47:18.830Z,20.13
2023-05-10T07:52:40.876Z,20.20
2023-05-10T07:58:02.776Z,20.24
2023-05-10T08:03:24.644Z,20.29
2023-05-10T08:08:51.699Z,20.32
2023-05-10T08:14:13.640Z,20.34
2023-05-10T08:19:35.528Z,20.37
2023-05-10T08:24:57.319Z,20.38
2023-05-10T08:30:19.328Z,20.38
2023-05-10T08:35:41.224Z,20.41
2023-05-10T08:41:04.357Z,20.45
2023-05-10T08:46:28.781Z,20.47
2023-05-10T08:51:56.426Z,20.52
2023-05-10T08:57:18.821Z,20.56
2023-05-10T09:02:41.500Z,20.60
2023-05-10T09:08:03.390Z,20.62
2023-05-10T09:13:26.217Z,20.63
2023-05-10T09:18:48.197Z,20.62
2023-05-10T09:24:10.432Z,20.63
2023-05-10T09:29:43.300Z,20.67
2023-05-10T09:35:12.460Z,20.68
2023-05-10T09:40:35.048Z,20.71
2023-05-10T09:45:57.048Z,20.74
2023-05-10T09:51:22.968Z,20.73
2023-05-10T09:56:44.936Z,20.75
2023-05-10T10:02:07.753Z,20.77
2023-05-10T10:07:30.366Z,20.79
2023-05-10T10:12:52.892Z,20.78
2023-05-10T10:18:16.750Z,20.75
2023-05-10T10:23:38.764Z,20.68
2023-05-10T10:29:12.569Z,20.63
2023-05-10T10:34:34.917Z,20.55
2023-05-10T10:39:56.846Z,20.52
2023-05-10T10:45:19.055Z,20.49
2023-05-10T10:50:47.928Z,20.49
2023-05-10T10:56:12.739Z,20.46
2023-05-10T11:01:38.541Z,20.46
2023-05-10T11:07:18.742Z,20.45
2023-05-10T11:13:02.076Z,20.46
2023-05-10T11:18:28.771Z,20.45
2023-05-10T11:23:53.273Z,20.45
2023-05-10T11:29:15.138Z,20.46
2023-05-10T11:34:36.998Z,20.47
2023-05-10T11:39:58.898Z,20.50
2023-05-10T11:45:20.835Z,20.52
2023-05-10T11:50:42.691Z,20.54
2023-05-10T11:56:08.672Z,20.55
2023-05-10T12:01:30.778Z,20.56
2023-05-10T12:06:52.617Z,20.60
2023-05-10T12:12:18.573Z,20.67
2023-05-10T12:17:43.458Z,20.74
2023-05-10T12:23:06.743Z,20.82
2023-05-10T12:28:31.964Z,20.88
2023-05-10T12:33:53.739Z,20.93
2023-05-10T12:39:15.663Z,20.97
2023-05-10T12:44:37.540Z,20.99
2023-05-10T12:50:02.351Z,21.00
2023-05-10T12:55:24.184Z,21.03
2023-05-10T13:00:46.208Z,21.05
2023-05-10T13:06:08.045Z,21.07
2023-05-10T13:11:29.920Z,21.09
2023-05-10T13:16:51.781Z,21.10
2023-05-10T13:22:13.592Z,21.12
2023-05-10T13:27:35.482Z,21.14
2023-05-10T13:32:57.351Z,21.15
2023-05-10T13:38:21.727Z,21.17
2023-05-10T13:43:44.314Z,21.18
2023-05-10T13:49:06.284Z,21.20
2023-05-10T13:54:30.685Z,21.22
2023-05-10T13:59:54.772Z,21.21
2023-05-10T14:05:19.994Z,21.20
2023-05-10T14:10:46.114Z,21.17
2023-05-10T14:16:08.041Z,21.13
2023-05-10T14:21:33.034Z,21.11
2023-05-10T14:26:55.276Z,21.07
2023-05-10T14:32:17.134Z,21.05
2023-05-10T14:37:38.974Z,21.02
2023-05-10T14:43:00.919Z,21.00
2023-05-10T14:48:22.778Z,20.98
2023-05-10T14:53:44.539Z,20.96
2023-05-10T14:59:06.376Z,20.93
2023-05-10T15:04:29.025Z,20.93
2023-05-10T15:09:53.117Z,20.87
2023-05-10T15:15:15.233Z,20.83
2023-05-10T15:20:37.235Z,20.81
2023-05-10T15:25:58.968Z,20.81
2023-05-10T15:31:20.889Z,20.80
2023-05-10T15:36:43.097Z,20.80
2023-05-10T15:42:05.356Z,20.79
2023-05-10T15:47:28.945Z,20.78
2023-05-10T15:52:50.750Z,20.77
2023-05-10T15:58:12.558Z,20.77
2023-05-10T16:03:37.278Z,20.75
2023-05-10T16:08:59.436Z,20.74
2023-05-10T16:14:24.951Z,20.74
2023-05-10T16:19:47.671Z,20.69
2023-05-10T16:25:11.523Z,20.69
2023-05-10T16:30:34.570Z,20.68
2023-05-10T16:35:56.597Z,20.67
2023-05-10T16:41:18.378Z,20.66
2023-05-10T16:46:40.980Z,20.67
2023-05-10T16:52:03.540Z,20.68
2023-05-10T16:57:25.939Z,20.66
2023-05-10T17:02:47.917Z,20.65
2023-05-10T17:08:10.472Z,20.63
2023-05-10T17:13:32.410Z,20.62
2023-05-10T17:18:54.284Z,20.57
2023-05-10T17:24:16.200Z,20.54
2023-05-10T17:29:37.990Z,20.53
2023-05-10T17:34:59.795Z,20.51
2023-05-10T17:40:21.945Z,20.48
2023-05-10T17:45:45.068Z,20.47
2023-05-10T17:51:06.973Z,20.45
2023-05-10T17:56:29.153Z,20.45
2023-05-10T18:01:50.983Z,20.43
2023-05-10T18:07:12.904Z,20.42
2023-05-10T18:12:34.658Z,20.40
2023-05-10T18:17:57.036Z,20.45
2023-05-10T18:23:18.940Z,20.53
2023-05-10T18:28:40.771Z,20.60
2023-05-10T18:34:02.653Z,20.66
2023-05-10T18:39:25.207Z,20.72
2023-05-10T18:44:47.025Z,20.79
2023-05-10T18:50:09.109Z,20.83
2023-05-10T18:55:31.026Z,20.84
2023-05-10T19:00:53.788Z,20.85
2023-05-10T19:06:15.621Z,20.89
2023-05-10T19:11:37.495Z,20.94
2023-05-10T19:16:59.340Z,20.99
2023-05-10T19:22:35.300Z,21.05
2023-05-10T19:28:03.807Z,21.10
2023-05-10T19:33:25.768Z,21.13
2023-05-10T19:38:47.692Z,21.14
2023-05-10T19:44:09.538Z,21.12
2023-05-10T19:49:31.659Z,21.18
2023-05-10T19:54:53.542Z,21.24
2023-05-10T20:00:15.626Z,21.30
2023-05-10T20:05:37.432Z,21.34
2023-05-10T20:11:00.911Z,21.40
2023-05-10T20:16:25.076Z,21.42
2023-05-10T20:21:48.330Z,21.42
2023-05-10T20:27:10.152Z,21.40
2023-05-10T20:32:32.559Z,21.40
2023-05-10T20:37:54.962Z,21.36
2023-05-10T20:43:17.315Z,21.29
2023-05-10T20:48:39.181Z,21.25
2023-05-10T20:54:04.660Z,21.18
2023-05-10T20:59:26.319Z,21.09
2023-05-10T21:04:48.111Z,21.05
2023-05-10T21:10:11.906Z,20.99
2023-05-10T21:15:33.756Z,20.93
2023-05-10T21:20:55.535Z,20.86
2023-05-10T21:26:17.507Z,20.83
2023-05-10T21:31:39.304Z,20.79
2023-05-10T21:37:01.709Z,20.76
2023-05-10T21:42:23.672Z,20.73
2023-05-10T21:47:45.925Z,20.69
2023-05-10T21:53:07.755Z,20.66
2023-05-10T21:58:29.496Z,20.64
2023-05-10T22:03:51.262Z,20.62
2023-05-10T22:09:13.077Z,20.60
2023-05-10T22:14:35.050Z,20.57
2023-05-10T22:19:57.000Z,20.56
2023-05-10T22:25:18.848Z,20.56
2023-05-10T22:30:42.504Z,20.55
2023-05-10T22:36:05.428Z,20.55
2023-05-10T22:41:27.219Z,20.51
2023-05-10T22:46:49.103Z,20.48
2023-05-10T22:52:11.147Z,20.47
2023-05-10T22:57:33.709Z,20.46
2023-05-10T23:02:55.605Z,20.45
2023-05-10T23:08:17.438Z,20.44
2023-05-10T23:13:39.181Z,20.44
2023-05-10T23:19:01.040Z,20.41
2023-05-10T23:24:23.154Z,20.38
2023-05-10T23:29:44.948Z,20.35
2023-05-10T23:35:07.309Z,20.30
2023-05-10T23:40:29.137Z,20.28
2023-05-10T23:45:58.141Z,20.28
2023-05-10T23:51:20.126Z,20.25
2023-05-10T23:56:41.933Z,20.23
